createdAt,value
2019-05-20T05:57:57.155Z,99731.67
2019-05-20T05:58:34.432Z,99741.28
2019-05-20T05:59:11.811Z,99739.70
2019-05-20T05:59:47.900Z,99732.99
2019-05-20T06:00:28.097Z,99734.45
2019-05-20T06:01:06.418Z,99736.30
2019-05-20T06:01:42.942Z,99723.69
2019-05-20T06:02:19.923Z,99728.14
2019-05-20T06:02:57.300Z,99728.61
2019-05-20T06:03:34.165Z,99733.63
2019-05-20T06:04:11.528Z,99725.48
2019-05-20T06:04:48.017Z,99729.14
2019-05-20T06:05:24.661Z,99727.31
2019-05-20T06:06:12.376Z,99728.22
2019-05-20T06:06:41.015Z,99731.43
2019-05-20T06:07:17.485Z,99728.74
2019-05-20T06:07:54.760Z,99726.05
2019-05-20T06:08:31.837Z,99724.27
2019-05-20T06:09:08.798Z,99722.06
2019-05-20T06:09:46.190Z,99727.11
2019-05-20T06:10:23.140Z,99733.13
2019-05-20T06:10:59.808Z,99725.47
2019-05-20T06:11:37.069Z,99734.22
2019-05-20T06:12:13.866Z,99737.99
2019-05-20T06:12:50.487Z,99733.02
2019-05-20T06:13:28.904Z,99739.53
2019-05-20T06:14:07.595Z,99734.59
2019-05-20T06:14:44.068Z,99737.48
2019-05-20T06:15:20.912Z,99734.46
2019-05-20T06:15:57.776Z,99732.25
2019-05-20T06:16:36.838Z,99727.89
2019-05-20T06:17:13.247Z,99723.44
2019-05-20T06:17:51.069Z,99722.20
2019-05-20T06:18:28.036Z,99720.06
2019-05-20T06:19:05.338Z,99712.00
2019-05-20T06:19:42.198Z,99709.92
2019-05-20T06:20:19.046Z,99716.89
2019-05-20T06:20:56.362Z,99718.98
2019-05-20T06:21:33.742Z,99713.18
2019-05-20T06:22:10.506Z,99714.21
2019-05-20T06:22:47.691Z,99718.06
2019-05-20T06:23:24.153Z,99714.16
2019-05-20T06:24:00.664Z,99709.84
2019-05-20T06:24:38.089Z,99704.97
2019-05-20T06:25:15.401Z,99712.09
2019-05-20T06:25:52.108Z,99708.68
2019-05-20T06:26:29.462Z,99696.98
2019-05-20T06:27:06.474Z,99710.94
2019-05-20T06:27:43.427Z,99707.99
2019-05-20T06:28:20.401Z,99708.67
2019-05-20T06:29:02.744Z,99753.47
2019-05-20T06:29:37.511Z,99797.09
2019-05-20T06:30:15.402Z,99714.88
2019-05-20T06:30:55.204Z,99729.52
2019-05-20T06:31:33.736Z,99764.77
2019-05-20T06:32:12.081Z,99807.91
2019-05-20T06:32:49.510Z,99807.91
2019-05-20T06:33:25.840Z,99832.42
2019-05-20T06:34:02.871Z,99843.01
2019-05-20T06:34:42.544Z,99876.47
2019-05-20T06:35:20.281Z,99859.00
2019-05-20T06:36:00.401Z,99859.00
2019-05-20T06:36:37.567Z,99849.75
2019-05-20T06:37:25.387Z,99795.20
2019-05-20T06:38:03.350Z,99795.20
2019-05-20T06:38:42.004Z,99830.38
2019-05-20T06:39:20.879Z,99854.27
2019-05-20T06:39:57.570Z,99828.50
2019-05-20T06:40:34.575Z,99841.31
2019-05-20T06:41:11.964Z,99840.27
2019-05-20T06:41:49.302Z,99840.27
2019-05-20T06:42:26.976Z,99848.01
2019-05-20T06:43:04.536Z,99851.16
2019-05-20T06:43:42.809Z,99868.16
2019-05-20T06:44:19.943Z,99848.48
2019-05-20T06:44:57.614Z,99852.14
2019-05-20T06:45:35.975Z,99759.75
2019-05-20T06:46:13.678Z,99864.79
2019-05-20T06:46:51.307Z,99867.86
2019-05-20T06:47:28.318Z,99849.97
2019-05-20T06:48:05.710Z,99877.03
2019-05-20T06:48:43.381Z,100055.57
2019-05-20T06:49:19.287Z,99865.21
2019-05-20T06:49:56.371Z,99894.08
2019-05-20T06:50:33.540Z,99877.98
2019-05-20T06:51:10.274Z,99873.11
2019-05-20T06:51:46.935Z,99873.11
2019-05-20T06:52:35.446Z,99851.36
2019-05-20T06:53:02.912Z,99902.18
2019-05-20T06:53:40.455Z,99910.36
2019-05-20T06:54:18.120Z,99887.66
2019-05-20T06:54:55.274Z,99864.30
2019-05-20T06:55:33.365Z,99867.95
2019-05-20T06:56:11.290Z,99858.64
2019-05-20T06:56:48.852Z,99869.95
2019-05-20T06:57:26.850Z,99835.85
2019-05-20T06:58:04.424Z,99935.89
2019-05-20T06:58:40.884Z,99862.17
2019-05-20T06:59:17.526Z,99853.71
2019-05-20T06:59:54.473Z,99872.58
2019-05-20T07:00:35.880Z,99872.58
2019-05-20T07:01:14.400Z,99820.55
2019-05-20T07:01:50.875Z,99746.46
2019-05-20T07:02:28.286Z,99750.06
2019-05-20T16:28:28.920Z,99527.41
2019-05-20T16:29:06.534Z,99526.34
2019-05-20T16:29:44.255Z,99522.25
2019-05-20T16:30:21.257Z,99522.72
2019-05-20T16:30:58.449Z,99526.87
2019-05-20T16:31:36.869Z,99527.36
2019-05-20T16:32:14.038Z,99516.86
2019-05-20T16:32:51.411Z,99524.73
2019-05-20T16:33:27.937Z,99519.80
2019-05-20T16:34:04.701Z,99523.51
2019-05-20T16:34:42.267Z,99521.80
2019-05-20T16:35:19.363Z,99515.88
2019-05-20T16:35:56.884Z,99513.84
2019-05-20T16:36:34.280Z,99513.84
2019-05-20T16:37:13.264Z,99509.40
2019-05-20T16:37:51.543Z,99508.63
2019-05-20T16:38:28.441Z,99506.97
2019-05-20T16:39:06.311Z,99499.04
2019-05-20T16:39:43.461Z,99500.39
2019-05-20T16:40:19.984Z,99506.08
2019-05-20T16:40:57.332Z,99504.91
2019-05-20T16:41:34.266Z,99496.88
2019-05-20T16:42:11.481Z,99499.84
2019-05-20T16:42:47.722Z,99494.09
2019-05-20T16:43:24.470Z,99492.92
2019-05-20T16:44:01.711Z,99492.92
2019-05-20T16:44:39.407Z,99504.95
2019-05-20T16:45:16.380Z,99502.47
2019-05-20T16:45:53.745Z,99504.97
2019-05-20T16:46:30.701Z,99511.64
2019-05-20T16:47:07.951Z,99513.34
2019-05-20T16:47:44.971Z,99508.16
2019-05-20T16:48:22.529Z,99510.27
2019-05-20T16:48:59.517Z,99508.59
2019-05-20T16:49:36.762Z,99504.30
2019-05-20T16:50:14.265Z,99504.30
2019-05-20T16:50:50.626Z,99484.67
2019-05-20T16:51:27.526Z,99572.06
2019-05-20T16:52:04.728Z,99625.23
2019-05-20T16:52:41.463Z,99625.23
2019-05-20T16:53:17.800Z,99623.85
2019-05-20T16:53:54.264Z,99620.70
2019-05-20T16:54:31.447Z,99605.65
2019-05-20T16:55:07.861Z,99605.65
2019-05-20T16:55:46.391Z,99621.85
2019-05-20T16:56:22.356Z,99589.13
2019-05-20T16:56:59.316Z,99589.13
2019-05-20T16:57:35.698Z,99629.03
2019-05-20T16:58:12.294Z,99626.42
2019-05-20T16:58:49.548Z,99626.42
2019-05-20T16:59:26.484Z,99575.93
2019-05-20T17:00:02.329Z,99634.78
2019-05-20T17:00:40.772Z,99634.78
2019-05-20T17:01:17.765Z,99641.03
2019-05-20T17:01:54.502Z,99617.84
2019-05-20T17:02:31.266Z,99604.70
2019-05-20T17:03:08.350Z,99635.23
2019-05-20T17:03:46.606Z,99635.65
2019-05-20T17:04:23.706Z,99635.65
2019-05-20T17:05:00.323Z,99635.83
2019-05-20T17:05:38.798Z,99622.70
2019-05-20T17:06:15.976Z,99631.64
2019-05-20T17:06:53.086Z,99635.81
2019-05-20T17:07:29.367Z,99615.89
2019-05-20T17:08:06.361Z,99630.72
2019-05-20T17:08:42.700Z,99567.20
2019-05-20T17:09:19.708Z,99626.17
2019-05-20T17:09:56.704Z,99621.30
2019-05-20T17:10:33.646Z,99613.80
2019-05-20T17:11:10.282Z,99620.87
2019-05-20T17:11:47.472Z,99620.87
2019-05-20T17:12:23.350Z,99644.36
2019-05-20T17:12:59.647Z,99633.50
2019-05-20T17:13:35.499Z,99594.52
2019-05-20T17:14:12.489Z,99594.52
2019-05-20T17:14:48.290Z,99609.25
2019-05-20T17:15:25.264Z,99624.91
2019-05-20T17:16:02.290Z,99622.30
2019-05-20T17:16:39.342Z,99643.97
2019-05-20T17:17:16.234Z,99684.95
2019-05-20T17:17:53.289Z,99638.03
2019-05-20T17:18:29.768Z,99646.78
2019-05-20T17:19:06.299Z,99618.94
2019-05-20T17:19:43.252Z,99589.75
2019-05-20T17:20:20.269Z,99614.52
2019-05-20T17:20:57.295Z,99556.93
2019-05-20T17:21:34.612Z,99617.86
2019-05-20T17:22:11.284Z,99632.58
2019-05-20T17:22:49.280Z,99588.30
2019-05-20T17:23:25.905Z,99528.84
2019-05-20T17:24:02.869Z,99528.63
2019-05-20T17:24:39.247Z,99536.56
2019-05-20T17:25:16.338Z,99494.56
2019-05-20T17:25:52.882Z,99479.47
2019-05-20T17:26:29.834Z,99481.23
2019-05-20T17:27:06.464Z,99480.72
2019-05-20T17:27:43.190Z,99470.98
2019-05-20T17:28:19.969Z,99469.05
2019-05-20T17:28:56.456Z,99468.92
2019-05-20T17:29:32.144Z,99463.38
2019-05-20T17:30:09.396Z,99461.88
2019-05-20T17:30:47.265Z,99464.05
2019-05-20T17:31:26.529Z,99455.73
2019-05-20T17:32:02.860Z,99464.81
2019-05-20T17:32:40.099Z,99464.69
2019-05-20T17:33:16.241Z,99456.84
2019-05-20T17:33:53.292Z,99468.59
2019-05-20T17:34:29.760Z,99472.19
2019-05-20T17:35:06.706Z,99470.17
2019-05-20T17:35:43.638Z,99465.52
2019-05-20T17:36:20.642Z,99470.94
2019-05-20T17:36:57.092Z,99466.20
2019-05-20T17:37:34.378Z,99471.65
2019-05-20T17:38:11.295Z,99468.34
